Time;durP1;ratioP1;P1;durP2;ratioP2;P2;SDS_P1;SDS_P2;PMS_P1;PMS_P2;Temp;Humidity;BMP_temperature;BMP_pressure;BME280_temperature;BME280_humidity;BME280_pressure;Samples;Min_cycle;Max_cycle;Signal;HPM_P1;HPM_P2
2023/12/14 05:03:11;;;;;;;4.30;2.80;;;5.90;97.30;;;;;;4951319;28;20547;-87
2023/12/14 05:05:36;;;;;;;5.33;4.00;;;5.80;97.30;;;;;;4964296;28;20437;-87
2023/12/14 05:08:01;;;;;;;1.43;1.33;;;5.80;97.30;;;;;;4983829;28;20592;-86
2023/12/14 05:10:27;;;;;;;1.23;1.13;;;5.70;97.30;;;;;;4943765;29;20559;-86
2023/12/14 05:12:52;;;;;;;2.37;2.17;;;5.70;97.30;;;;;;4952611;28;20254;-87
2023/12/14 05:15:18;;;;;;;1.33;1.23;;;5.70;97.30;;;;;;4964250;28;20171;-88
2023/12/14 05:17:45;;;;;;;0.90;0.80;;;5.60;97.30;;;;;;4950941;29;20786;-87
2023/12/14 05:20:11;;;;;;;1.17;1.07;;;5.70;97.30;;;;;;4950943;29;20233;-87
2023/12/14 05:22:36;;;;;;;1.30;1.20;;;5.60;97.30;;;;;;4967022;28;20435;-87
2023/12/14 05:25:03;;;;;;;1.20;1.10;;;5.70;97.30;;;;;;4950982;29;20684;-87
2023/12/14 05:27:28;;;;;;;6.67;1.33;;;5.60;97.30;;;;;;4966806;28;20286;-88
2023/12/14 05:29:53;;;;;;;3.03;1.77;;;5.60;97.30;;;;;;4966861;28;20457;-87
2023/12/14 05:32:19;;;;;;;1.73;1.47;;;5.70;97.30;;;;;;4966279;28;20210;-86
2023/12/14 05:34:44;;;;;;;1.07;0.97;;;5.70;97.30;;;;;;4951975;28;20608;-87
2023/12/14 05:37:10;;;;;;;2.73;1.73;;;5.70;97.30;;;;;;4950449;29;20183;-87
2023/12/14 05:39:35;;;;;;;1.90;1.80;;;5.70;97.30;;;;;;4966837;28;20561;-86
2023/12/14 05:42:01;;;;;;;11.73;2.60;;;5.60;97.30;;;;;;4966545;28;20203;-87
2023/12/14 05:44:26;;;;;;;1.70;1.60;;;5.60;97.30;;;;;;4952705;28;20286;-85
2023/12/14 05:46:52;;;;;;;4.67;4.37;;;5.60;97.30;;;;;;4967503;28;20215;-86
2023/12/14 05:49:18;;;;;;;1.93;1.40;;;5.60;97.30;;;;;;4970375;28;20189;-84
2023/12/14 05:51:43;;;;;;;2.10;1.87;;;5.60;97.30;;;;;;4954454;28;20223;-88
2023/12/14 05:54:09;;;;;;;4.60;2.03;;;5.50;97.30;;;;;;4971150;28;20190;-82
2023/12/14 05:56:34;;;;;;;2.23;1.20;;;5.50;97.30;;;;;;4968702;28;20257;-87
2023/12/14 05:59:00;;;;;;;1.73;1.10;;;5.50;97.30;;;;;;4951296;28;20250;-87
2023/12/14 06:01:25;;;;;;;1.10;1.00;;;5.50;97.30;;;;;;4967565;28;20258;-85
2023/12/14 06:03:51;;;;;;;0.90;0.80;;;5.40;97.30;;;;;;4966177;28;20180;-85
2023/12/14 06:06:16;;;;;;;1.10;1.00;;;5.40;97.30;;;;;;4951365;29;20577;-85
2023/12/14 06:08:42;;;;;;;2.80;1.27;;;5.40;97.30;;;;;;4965675;28;20262;-85
2023/12/14 06:11:08;;;;;;;1.00;0.90;;;5.30;97.30;;;;;;4966390;28;20712;-85
2023/12/14 06:13:34;;;;;;;1.00;0.90;;;5.30;97.30;;;;;;4968989;28;20257;-85
2023/12/14 06:16:00;;;;;;;1.93;1.80;;;5.30;97.30;;;;;;4969707;28;20426;-87
2023/12/14 06:18:25;;;;;;;1.30;1.20;;;5.30;97.30;;;;;;4971623;28;20755;-84
2023/12/14 06:20:51;;;;;;;2.70;1.57;;;5.30;97.30;;;;;;4955964;28;20291;-86
2023/12/14 06:23:17;;;;;;;1.23;1.13;;;5.30;97.30;;;;;;4973759;28;20187;-85
2023/12/14 06:25:43;;;;;;;3.43;2.60;;;5.30;97.30;;;;;;4972865;28;20474;-85
2023/12/14 06:28:08;;;;;;;1.83;1.73;;;5.30;97.30;;;;;;4970705;28;20474;-85
2023/12/14 06:30:34;;;;;;;1.13;1.03;;;5.20;97.30;;;;;;4970541;28;20198;-86
2023/12/14 06:32:59;;;;;;;3.23;1.90;;;5.20;97.30;;;;;;4969809;28;20187;-86
2023/12/14 06:35:25;;;;;;;1.87;1.77;;;5.30;97.30;;;;;;4954600;29;20344;-86
2023/12/14 06:37:50;;;;;;;2.67;2.47;;;5.20;97.30;;;;;;4969798;28;20183;-84
2023/12/14 06:40:16;;;;;;;2.50;1.83;;;5.20;97.30;;;;;;4969581;28;20183;-86
2023/12/14 06:42:42;;;;;;;1.20;1.13;;;5.20;97.30;;;;;;4969470;28;20207;-84
2023/12/14 06:45:08;;;;;;;6.07;4.63;;;5.20;97.30;;;;;;4969591;28;20561;-86
2023/12/14 06:47:34;;;;;;;3.70;1.87;;;5.10;97.30;;;;;;4969295;28;20265;-86
2023/12/14 06:49:59;;;;;;;5.23;1.73;;;5.10;97.30;;;;;;4952785;28;20469;-86
2023/12/14 06:52:25;;;;;;;1.53;1.43;;;5.10;97.30;;;;;;4974644;28;20822;-85
2023/12/14 06:54:51;;;;;;;4.20;3.17;;;5.10;97.30;;;;;;4957773;28;20186;-85
2023/12/14 06:57:16;;;;;;;1.73;1.70;;;5.10;97.30;;;;;;4976160;28;20189;-86
2023/12/14 06:59:42;;;;;;;1.43;1.33;;;5.10;97.30;;;;;;4955206;29;20185;-87
2023/12/14 07:02:07;;;;;;;1.90;1.80;;;5.10;97.30;;;;;;4975067;28;20605;-87
2023/12/14 07:04:33;;;;;;;13.33;2.80;;;5.00;97.30;;;;;;4970698;28;20179;-88
2023/12/14 07:06:58;;;;;;;9.90;2.50;;;5.00;97.30;;;;;;4970524;28;20218;-87
2023/12/14 07:09:24;;;;;;;3.97;3.80;;;5.00;97.30;;;;;;4953840;28;20230;-87
2023/12/14 07:14:17;;;;;;;1.93;1.83;;;5.00;97.30;;;;;;4996171;28;20218;-64
2023/12/14 07:16:43;;;;;;;1.83;1.70;;;5.00;97.30;;;;;;4991401;28;20424;-64
2023/12/14 07:19:10;;;;;;;1.97;1.73;;;4.90;97.30;;;;;;4972736;28;20181;-64
2023/12/14 07:21:36;;;;;;;4.73;1.83;;;4.90;97.30;;;;;;4972622;28;20278;-64
2023/12/14 07:24:01;;;;;;;1.83;1.73;;;4.90;97.30;;;;;;4996724;28;21030;-64
2023/12/14 07:26:27;;;;;;;3.33;1.67;;;4.90;97.30;;;;;;4980250;28;20212;-64
2023/12/14 07:28:53;;;;;;;3.93;3.70;;;4.90;97.30;;;;;;4988839;28;20182;-64
2023/12/14 07:31:19;;;;;;;1.20;1.10;;;4.90;97.30;;;;;;4987832;28;20574;-63
2023/12/14 07:33:45;;;;;;;1.40;1.30;;;4.90;97.30;;;;;;4989488;28;20429;-64
2023/12/14 07:36:11;;;;;;;9.77;3.37;;;4.90;97.30;;;;;;4971217;28;20182;-63
2023/12/14 07:38:36;;;;;;;2.43;2.23;;;4.90;97.30;;;;;;4971787;28;20428;-63
2023/12/14 07:41:03;;;;;;;1.43;1.33;;;4.80;97.30;;;;;;4989599;28;20202;-63
2023/12/14 07:43:28;;;;;;;1.90;1.40;;;4.80;97.30;;;;;;4989184;28;20214;-64
2023/12/14 07:45:54;;;;;;;1.47;1.37;;;4.80;97.30;;;;;;4988866;28;20425;-64
2023/12/14 07:48:20;;;;;;;1.73;1.40;;;4.70;97.30;;;;;;4988729;28;20236;-64
2023/12/14 07:50:45;;;;;;;1.90;1.80;;;4.70;97.30;;;;;;4989145;28;20629;-64
2023/12/14 07:53:11;;;;;;;1.77;1.73;;;4.70;97.30;;;;;;4972304;28;20653;-65
2023/12/14 07:55:36;;;;;;;2.63;2.20;;;4.70;97.30;;;;;;4989225;28;20421;-64
2023/12/14 07:58:02;;;;;;;1.43;1.10;;;4.70;97.30;;;;;;4971501;28;20200;-64
2023/12/14 08:00:27;;;;;;;3.60;2.50;;;4.60;97.30;;;;;;4971522;28;20691;-64
2023/12/14 08:02:53;;;;;;;7.13;3.30;;;4.60;97.30;;;;;;4989738;28;20616;-64
2023/12/14 08:05:19;;;;;;;5.90;2.30;;;4.60;97.30;;;;;;4970830;28;20655;-64
2023/12/14 08:07:44;;;;;;;5.50;2.80;;;4.60;97.30;;;;;;4972122;28;20209;-64
2023/12/14 08:10:10;;;;;;;1.73;1.63;;;4.60;97.30;;;;;;4970572;28;20272;-64
2023/12/14 08:12:35;;;;;;;1.60;1.50;;;4.60;97.30;;;;;;4988093;28;20356;-64
2023/12/14 08:15:01;;;;;;;2.87;2.33;;;4.50;97.30;;;;;;4988172;28;20186;-65
2023/12/14 08:17:27;;;;;;;4.97;3.03;;;4.50;97.30;;;;;;4988080;28;20191;-64
2023/12/14 08:19:53;;;;;;;6.53;3.90;;;4.50;97.30;;;;;;4970434;28;20188;-64
2023/12/14 08:22:21;;;;;;;1.30;1.20;;;4.50;97.30;;;;;;4971063;28;20453;-64
2023/12/14 08:24:47;;;;;;;6.70;3.67;;;4.50;97.30;;;;;;4970355;28;20196;-64
2023/12/14 08:27:13;;;;;;;1.50;1.33;;;4.50;97.30;;;;;;4987422;28;20483;-64
2023/12/14 08:29:38;;;;;;;7.57;2.40;;;4.50;97.30;;;;;;4987831;28;20416;-65
2023/12/14 08:32:04;;;;;;;3.27;2.37;;;4.50;97.30;;;;;;4971056;28;20330;-64
2023/12/14 08:34:30;;;;;;;4.70;3.37;;;4.50;97.30;;;;;;4987783;28;20189;-64
2023/12/14 08:36:55;;;;;;;1.80;1.70;;;4.50;97.30;;;;;;4987541;28;20417;-65
2023/12/14 08:39:21;;;;;;;3.87;3.67;;;4.40;97.30;;;;;;4969711;28;20244;-64
2023/12/14 08:41:47;;;;;;;3.33;3.13;;;4.40;97.30;;;;;;4972877;28;20684;-64
2023/12/14 08:44:13;;;;;;;2.50;2.30;;;4.40;97.30;;;;;;4985434;28;20259;-64
2023/12/14 08:46:44;;;;;;;4.43;3.80;;;4.40;97.30;;;;;;4968608;28;20551;-64
2023/12/14 08:49:10;;;;;;;12.13;6.50;;;4.40;97.30;;;;;;4969305;28;20455;-64
2023/12/14 08:51:36;;;;;;;7.00;1.83;;;4.40;97.30;;;;;;4979868;28;20441;-64
2023/12/14 08:54:02;;;;;;;2.50;2.03;;;4.40;97.30;;;;;;4988980;28;20417;-65
2023/12/14 08:56:27;;;;;;;1.17;1.10;;;4.30;97.30;;;;;;4988150;28;20190;-65
2023/12/14 08:58:53;;;;;;;3.13;2.87;;;4.30;97.30;;;;;;4970393;28;20194;-64
2023/12/14 09:01:22;;;;;;;1.97;1.83;;;4.40;97.30;;;;;;4987467;28;20218;-65
2023/12/14 09:03:49;;;;;;;1.70;1.60;;;4.40;97.30;;;;;;4987806;28;20666;-64
2023/12/14 09:06:15;;;;;;;28.33;5.67;;;4.40;97.30;;;;;;4986106;28;20421;-64
2023/12/14 09:08:41;;;;;;;1.73;1.63;;;4.40;97.30;;;;;;4969919;28;20520;-65
2023/12/14 09:11:07;;;;;;;1.93;1.80;;;4.40;97.30;;;;;;4985678;28;20536;-64
2023/12/14 09:13:32;;;;;;;2.33;2.13;;;4.40;97.30;;;;;;4986368;28;20237;-64
2023/12/14 09:15:58;;;;;;;3.43;1.57;;;4.40;97.30;;;;;;4971107;28;20657;-64
2023/12/14 09:18:24;;;;;;;1.63;1.53;;;4.40;97.30;;;;;;4969631;28;20252;-64
2023/12/14 09:20:50;;;;;;;4.17;2.23;;;4.40;97.30;;;;;;4968379;28;20296;-64
2023/12/14 09:23:16;;;;;;;2.27;1.70;;;4.40;97.30;;;;;;4967935;28;20186;-64
2023/12/14 09:25:42;;;;;;;1.97;1.57;;;4.40;97.30;;;;;;4968304;28;20965;-64
2023/12/14 09:28:07;;;;;;;1.47;1.40;;;4.40;97.30;;;;;;4985208;28;20516;-64
2023/12/14 09:30:33;;;;;;;2.33;2.13;;;4.40;97.30;;;;;;4986632;28;20227;-64
2023/12/14 09:32:58;;;;;;;2.60;1.63;;;4.40;97.30;;;;;;4969686;28;20331;-64
2023/12/14 09:35:24;;;;;;;2.07;1.93;;;4.40;97.30;;;;;;4984220;28;20618;-64
2023/12/14 09:37:49;;;;;;;2.03;1.90;;;4.40;97.30;;;;;;4969077;28;20194;-64
2023/12/14 09:40:16;;;;;;;2.13;1.97;;;4.40;97.30;;;;;;4983812;28;20186;-64
2023/12/14 09:42:42;;;;;;;1.87;1.77;;;4.40;97.30;;;;;;4986754;28;20593;-64
2023/12/14 09:45:12;;;;;;;1.97;1.87;;;4.40;97.30;;;;;;4984527;28;20431;-64
2023/12/14 09:47:38;;;;;;;2.27;1.90;;;4.40;97.30;;;;;;4970453;28;20858;-64
2023/12/14 09:50:05;;;;;;;2.50;2.30;;;4.40;97.30;;;;;;4986659;28;20520;-63
2023/12/14 09:52:30;;;;;;;2.33;2.13;;;4.40;97.30;;;;;;4966873;28;20516;-64
2023/12/14 09:54:56;;;;;;;1.20;1.10;;;4.40;97.30;;;;;;4975818;28;20518;-64
2023/12/14 09:57:22;;;;;;;4.23;3.00;;;4.30;97.30;;;;;;4990127;28;20424;-64
2023/12/14 09:59:55;;;;;;;7.63;2.40;;;4.30;97.30;;;;;;4989826;28;20650;-64
2023/12/14 10:02:26;;;;;;;1.00;0.90;;;4.30;97.30;;;;;;4971268;28;20457;-64
2023/12/14 10:04:51;;;;;;;3.43;1.30;;;4.30;97.30;;;;;;4988312;28;20425;-64
2023/12/14 10:07:18;;;;;;;2.17;2.00;;;4.30;97.30;;;;;;4970513;28;20579;-64
2023/12/14 10:09:44;;;;;;;3.83;1.63;;;4.20;97.30;;;;;;4989982;28;20257;-64
2023/12/14 10:12:09;;;;;;;1.57;1.47;;;4.30;97.30;;;;;;4974073;28;20481;-64
2023/12/14 10:14:36;;;;;;;8.63;4.50;;;4.30;97.30;;;;;;4988016;28;20229;-64
2023/12/14 10:17:19;;;;;;;2.67;1.93;;;4.30;97.30;;;;;;4972309;28;20190;-64
2023/12/14 10:19:46;;;;;;;2.43;2.27;;;4.30;97.30;;;;;;4982176;28;20443;-64
2023/12/14 10:22:15;;;;;;;6.17;3.57;;;4.30;97.30;;;;;;4969190;28;20494;-64
2023/12/14 10:24:49;;;;;;;2.60;2.03;;;4.30;97.30;;;;;;4989406;28;20721;-64
2023/12/14 10:27:16;;;;;;;1.10;1.00;;;4.30;97.30;;;;;;4970372;28;20854;-64
2023/12/14 10:29:44;;;;;;;2.63;2.43;;;4.30;97.30;;;;;;4987200;28;20499;-64
2023/12/14 10:32:11;;;;;;;1.87;1.77;;;4.30;97.30;;;;;;4986704;28;20432;-63
2023/12/14 10:34:36;;;;;;;1.20;1.10;;;4.20;97.30;;;;;;4968988;28;20802;-63
2023/12/14 10:37:05;;;;;;;2.77;1.93;;;4.20;97.30;;;;;;4987324;28;20433;-63
2023/12/14 10:39:33;;;;;;;2.90;2.30;;;4.20;97.30;;;;;;4985478;28;20598;-64
2023/12/14 10:42:04;;;;;;;1.77;1.67;;;4.30;97.30;;;;;;4987115;28;20454;-63
2023/12/14 10:44:34;;;;;;;1.53;1.47;;;4.20;97.30;;;;;;4987005;28;20417;-63
2023/12/14 10:47:00;;;;;;;2.27;2.00;;;4.30;97.30;;;;;;4971554;28;20475;-63
2023/12/14 10:49:26;;;;;;;2.03;1.90;;;4.20;97.30;;;;;;4969240;28;20517;-64
2023/12/14 10:51:55;;;;;;;1.50;1.27;;;4.20;97.30;;;;;;4988840;28;20428;-64
2023/12/14 10:54:23;;;;;;;1.10;1.00;;;4.20;97.30;;;;;;4968987;28;20425;-64
2023/12/14 10:56:48;;;;;;;4.00;2.07;;;4.20;97.30;;;;;;4986646;28;20425;-63
2023/12/14 10:59:17;;;;;;;1.47;1.37;;;4.20;97.30;;;;;;4984938;28;20436;-63
2023/12/14 11:01:42;;;;;;;1.93;1.20;;;4.20;97.30;;;;;;4988550;28;20205;-63
2023/12/14 11:04:13;;;;;;;3.47;3.07;;;4.20;97.30;;;;;;4986068;28;20532;-64
2023/12/14 11:06:39;;;;;;;21.27;2.30;;;4.20;97.30;;;;;;4989116;28;20228;-63
2023/12/14 11:09:06;;;;;;;1.00;0.90;;;4.20;97.30;;;;;;4979287;28;20579;-63
2023/12/14 11:11:43;;;;;;;4.90;2.73;;;4.20;97.30;;;;;;4985797;28;20429;-63
2023/12/14 11:14:12;;;;;;;1.77;1.40;;;4.20;97.30;;;;;;4983404;28;20460;-64
2023/12/14 11:16:44;;;;;;;1.07;0.97;;;4.20;97.30;;;;;;4986786;28;20414;-64
2023/12/14 11:19:22;;;;;;;5.60;2.13;;;4.20;97.30;;;;;;4969858;28;20860;-63
2023/12/14 11:22:08;;;;;;;4.43;1.27;;;4.20;97.30;;;;;;4980104;28;20437;-63
2023/12/14 11:24:37;;;;;;;4.57;2.97;;;4.20;97.30;;;;;;4985210;28;20438;-64
2023/12/14 11:27:09;;;;;;;1.23;1.10;;;4.20;97.30;;;;;;4985856;28;20469;-64
2023/12/14 11:29:38;;;;;;;1.50;1.40;;;4.20;97.30;;;;;;4966323;28;20418;-64
2023/12/14 11:32:06;;;;;;;1.10;1.00;;;4.30;97.30;;;;;;4985274;28;20445;-64
2023/12/14 11:34:31;;;;;;;2.00;1.90;;;4.20;97.30;;;;;;4967682;28;20505;-64
2023/12/14 11:36:57;;;;;;;1.27;1.17;;;4.20;97.30;;;;;;4970308;28;20532;-63
2023/12/14 11:39:22;;;;;;;2.37;2.17;;;4.20;97.30;;;;;;4985378;28;20272;-64
2023/12/14 11:42:06;;;;;;;1.00;0.90;;;4.20;97.30;;;;;;4987460;28;20256;-64
2023/12/14 11:44:32;;;;;;;1.87;1.77;;;4.30;97.30;;;;;;4985776;28;20188;-64
2023/12/14 11:46:58;;;;;;;1.60;1.50;;;4.20;97.30;;;;;;4987433;28;20461;-64
2023/12/14 11:49:27;;;;;;;1.00;0.90;;;4.20;97.30;;;;;;4987313;28;20186;-63
2023/12/14 11:51:56;;;;;;;1.00;0.90;;;4.20;97.30;;;;;;4982556;28;20440;-64
2023/12/14 11:54:22;;;;;;;4.10;1.43;;;4.20;97.30;;;;;;4985094;28;20440;-64
2023/12/14 11:56:49;;;;;;;1.73;1.10;;;4.20;97.30;;;;;;4986684;28;20765;-64
2023/12/14 11:59:17;;;;;;;2.27;1.27;;;4.20;97.30;;;;;;4987241;28;20810;-63
2023/12/14 12:02:02;;;;;;;0.90;0.80;;;4.20;97.30;;;;;;4972657;28;20540;-63
2023/12/14 12:04:28;;;;;;;1.63;1.53;;;4.20;97.30;;;;;;4984138;28;20428;-63
2023/12/14 12:07:06;;;;;;;1.00;0.90;;;4.20;97.30;;;;;;4984131;28;20923;-63
2023/12/14 12:09:42;;;;;;;0.90;0.80;;;4.20;97.30;;;;;;4984654;28;20281;-64
2023/12/14 12:12:09;;;;;;;4.97;1.77;;;4.30;97.30;;;;;;4989340;28;20499;-64
2023/12/14 12:14:35;;;;;;;1.87;1.77;;;4.30;97.30;;;;;;4964482;28;20484;-64
2023/12/14 12:17:01;;;;;;;1.10;1.00;;;4.30;97.30;;;;;;4969591;28;20424;-64
2023/12/14 12:19:26;;;;;;;1.10;1.00;;;4.20;97.30;;;;;;4983674;28;20804;-63
2023/12/14 12:21:52;;;;;;;1.67;1.50;;;4.20;97.30;;;;;;4984170;28;20301;-64
2023/12/14 12:24:17;;;;;;;1.43;1.33;;;4.20;97.30;;;;;;4966181;28;20216;-63
2023/12/14 12:26:43;;;;;;;3.00;1.20;;;4.10;97.30;;;;;;4969235;28;20209;-63
2023/12/14 12:29:08;;;;;;;7.60;2.30;;;4.10;97.30;;;;;;4968758;28;20221;-63
2023/12/14 12:31:34;;;;;;;2.00;1.70;;;4.10;97.30;;;;;;4963250;28;20317;-63
2023/12/14 12:34:00;;;;;;;2.47;2.27;;;4.10;97.30;;;;;;4974804;28;20185;-63
2023/12/14 12:36:25;;;;;;;1.40;1.37;;;4.10;97.30;;;;;;4983543;28;20210;-63
2023/12/14 12:38:51;;;;;;;1.07;0.97;;;4.10;97.30;;;;;;4981826;28;20220;-62
2023/12/14 12:41:17;;;;;;;1.00;0.90;;;4.10;97.30;;;;;;4984583;28;20236;-63
2023/12/14 12:43:43;;;;;;;1.97;1.37;;;4.10;97.30;;;;;;4982672;28;20190;-63
2023/12/14 12:46:09;;;;;;;1.70;1.00;;;4.10;97.30;;;;;;4982152;28;20424;-62
2023/12/14 12:48:35;;;;;;;1.20;1.10;;;4.10;97.30;;;;;;4983130;28;20272;-62
2023/12/14 12:51:01;;;;;;;1.67;1.50;;;4.20;97.30;;;;;;4982460;28;20200;-62
2023/12/14 12:53:26;;;;;;;3.17;2.97;;;4.20;97.30;;;;;;4982655;28;20738;-63
2023/12/14 12:55:52;;;;;;;2.73;2.53;;;4.10;97.30;;;;;;4985281;28;20182;-63
2023/12/14 12:58:17;;;;;;;1.97;1.87;;;4.10;97.30;;;;;;4966693;28;20236;-63
2023/12/14 13:00:43;;;;;;;1.30;1.20;;;4.00;97.30;;;;;;4983987;28;20202;-63
2023/12/14 13:03:09;;;;;;;1.00;0.90;;;4.00;97.30;;;;;;4967409;28;20178;-64
2023/12/14 13:05:35;;;;;;;2.23;2.10;;;4.00;97.30;;;;;;4982693;28;20237;-63
2023/12/14 13:08:00;;;;;;;1.83;1.77;;;4.00;97.30;;;;;;4981639;28;20461;-64
2023/12/14 13:10:29;;;;;;;1.87;1.77;;;4.00;97.30;;;;;;4989014;28;20252;-63
2023/12/14 13:12:55;;;;;;;1.37;1.23;;;4.00;97.30;;;;;;4963863;28;20260;-63
2023/12/14 13:15:25;;;;;;;1.50;1.40;;;4.00;97.30;;;;;;4969381;28;20461;-64
2023/12/14 13:17:51;;;;;;;1.20;1.20;;;4.00;97.30;;;;;;4966793;28;20760;-63
2023/12/14 13:20:18;;;;;;;2.30;2.03;;;4.00;97.30;;;;;;4985029;28;20512;-64
2023/12/14 13:22:43;;;;;;;1.80;1.50;;;4.00;97.30;;;;;;4988872;28;20417;-64
2023/12/14 13:25:09;;;;;;;1.37;1.27;;;4.00;97.30;;;;;;4985934;28;20594;-65
2023/12/14 13:27:36;;;;;;;1.40;1.30;;;4.00;97.30;;;;;;4967585;28;20205;-64
2023/12/14 13:30:02;;;;;;;2.27;1.40;;;4.00;97.30;;;;;;4983608;28;20178;-64
2023/12/14 13:32:28;;;;;;;3.67;1.80;;;4.00;97.30;;;;;;4966539;28;20441;-65
2023/12/14 13:34:53;;;;;;;3.07;1.77;;;4.00;97.30;;;;;;4970437;28;20901;-65
2023/12/14 13:37:19;;;;;;;1.07;1.00;;;4.00;97.30;;;;;;4965029;28;20664;-64
2023/12/14 13:39:45;;;;;;;0.90;0.80;;;4.00;97.30;;;;;;4983273;28;20189;-65
2023/12/14 13:42:10;;;;;;;5.03;2.90;;;4.00;97.30;;;;;;4986912;28;20268;-65
2023/12/14 13:44:36;;;;;;;5.87;1.67;;;4.00;97.30;;;;;;4981824;28;20265;-63
2023/12/14 13:47:05;;;;;;;1.53;1.43;;;4.00;97.30;;;;;;4984674;28;20232;-64
2023/12/14 13:49:30;;;;;;;2.37;2.17;;;4.00;97.30;;;;;;4969149;28;20550;-64
2023/12/14 13:51:56;;;;;;;7.00;2.47;;;4.00;97.30;;;;;;4967005;28;20433;-64
2023/12/14 13:54:22;;;;;;;2.50;1.67;;;4.00;97.30;;;;;;4979538;28;20185;-64
2023/12/14 13:56:48;;;;;;;2.87;2.67;;;4.00;97.30;;;;;;4981125;28;20213;-64
2023/12/14 13:59:13;;;;;;;1.53;1.43;;;4.00;97.30;;;;;;4983514;28;20471;-64
2023/12/14 14:01:39;;;;;;;2.87;1.17;;;4.00;97.30;;;;;;4979708;28;20212;-64
2023/12/14 14:04:04;;;;;;;4.60;1.20;;;4.00;97.30;;;;;;4983558;28;20186;-65
2023/12/14 14:06:30;;;;;;;2.07;1.93;;;4.00;97.30;;;;;;4987387;28;20227;-64
2023/12/14 14:08:56;;;;;;;3.20;3.00;;;3.90;97.30;;;;;;4962364;28;20244;-64
2023/12/14 14:11:22;;;;;;;1.43;1.33;;;3.90;97.30;;;;;;4981402;28;20944;-64
2023/12/14 14:13:48;;;;;;;2.20;1.57;;;3.90;97.30;;;;;;4960204;28;20226;-63
2023/12/14 14:16:13;;;;;;;1.33;1.23;;;3.90;97.30;;;;;;4982631;28;20475;-64
2023/12/14 14:18:39;;;;;;;3.13;2.93;;;3.90;97.30;;;;;;4984234;28;20429;-64
2023/12/14 14:21:08;;;;;;;3.40;1.53;;;3.90;97.30;;;;;;4985048;28;20366;-64
2023/12/14 14:23:34;;;;;;;1.20;1.10;;;3.90;97.30;;;;;;4979374;28;20501;-64
2023/12/14 14:26:00;;;;;;;2.30;1.90;;;3.90;97.30;;;;;;4983442;28;20428;-64
2023/12/14 14:28:25;;;;;;;1.97;1.87;;;3.80;97.30;;;;;;4983517;28;20477;-64
2023/12/14 14:30:51;;;;;;;8.33;1.87;;;3.80;97.30;;;;;;4979505;28;20473;-64
2023/12/14 14:33:18;;;;;;;8.30;3.70;;;3.80;97.30;;;;;;4964309;28;20186;-64
2023/12/14 14:35:47;;;;;;;4.67;3.60;;;3.80;97.30;;;;;;4981079;28;20417;-64
2023/12/14 14:38:13;;;;;;;1.97;1.87;;;3.80;97.30;;;;;;4960883;28;20432;-64
2023/12/14 14:40:40;;;;;;;6.10;3.23;;;3.80;97.30;;;;;;4980910;28;20855;-64
2023/12/14 14:43:06;;;;;;;2.03;1.90;;;3.80;97.30;;;;;;4963964;28;20437;-64
2023/12/14 14:45:31;;;;;;;6.07;3.53;;;3.80;97.30;;;;;;4979327;28;20501;-64
2023/12/14 14:47:57;;;;;;;3.10;2.33;;;3.80;97.30;;;;;;4986077;28;20690;-64
2023/12/14 14:50:22;;;;;;;2.57;2.37;;;3.80;97.30;;;;;;4971254;28;20217;-63
2023/12/14 14:52:48;;;;;;;3.33;1.60;;;3.80;97.30;;;;;;4984711;28;20170;-64
2023/12/14 14:55:14;;;;;;;2.53;2.33;;;3.80;97.30;;;;;;4972765;28;20189;-64
2023/12/14 14:57:40;;;;;;;1.40;1.30;;;3.70;97.30;;;;;;4983295;28;20191;-64
2023/12/14 15:00:06;;;;;;;4.63;4.20;;;3.70;97.30;;;;;;4964417;28;20192;-63
2023/12/14 15:02:31;;;;;;;7.33;4.03;;;3.70;97.30;;;;;;4978598;28;20190;-64
2023/12/14 15:04:57;;;;;;;3.77;3.10;;;3.70;97.30;;;;;;4980752;28;20429;-64
2023/12/14 15:07:22;;;;;;;1.30;1.20;;;3.70;97.30;;;;;;4971008;28;20435;-65
2023/12/14 15:09:48;;;;;;;3.20;3.00;;;3.70;97.30;;;;;;4968968;28;20646;-64
2023/12/14 15:12:14;;;;;;;7.20;3.90;;;3.70;97.30;;;;;;4989797;28;20279;-64
2023/12/14 15:14:39;;;;;;;2.70;2.50;;;3.70;97.30;;;;;;4977491;28;20186;-64
2023/12/14 15:17:05;;;;;;;2.33;2.13;;;3.70;97.30;;;;;;4967256;28;20194;-64
2023/12/14 15:19:30;;;;;;;4.27;4.00;;;3.70;97.30;;;;;;4981726;28;20190;-64
2023/12/14 15:21:56;;;;;;;4.40;2.90;;;3.70;97.30;;;;;;4968504;28;20206;-63
2023/12/14 15:24:22;;;;;;;2.60;2.20;;;3.70;97.30;;;;;;4986110;28;20437;-63
2023/12/14 15:26:48;;;;;;;6.73;2.80;;;3.70;97.30;;;;;;4981026;28;20210;-63
2023/12/14 15:29:14;;;;;;;4.43;3.27;;;3.60;97.30;;;;;;4980151;28;20881;-63
2023/12/14 15:31:40;;;;;;;2.73;2.30;;;3.60;97.30;;;;;;4960179;28;20763;-63
2023/12/14 15:34:08;;;;;;;13.33;3.30;;;3.60;97.30;;;;;;4977482;28;20185;-63
2023/12/14 15:36:34;;;;;;;4.20;2.07;;;3.60;97.30;;;;;;4981482;28;20188;-66
2023/12/14 15:39:00;;;;;;;5.33;2.53;;;3.60;97.30;;;;;;4985775;28;20425;-64
2023/12/14 15:41:26;;;;;;;10.90;2.97;;;3.60;97.30;;;;;;4960395;28;20305;-63
2023/12/14 15:43:52;;;;;;;4.67;3.03;;;3.60;97.30;;;;;;4978398;28;20513;-63
2023/12/14 15:46:18;;;;;;;1.93;1.90;;;3.70;97.30;;;;;;4978747;28;20355;-63
2023/12/14 15:48:44;;;;;;;2.80;2.60;;;3.70;97.30;;;;;;4960166;28;20217;-63
2023/12/14 15:51:10;;;;;;;1.97;1.87;;;3.70;97.30;;;;;;4989691;28;20437;-63
2023/12/14 15:53:36;;;;;;;5.10;4.00;;;3.70;97.30;;;;;;4976781;28;20488;-65
2023/12/14 15:56:02;;;;;;;4.83;2.70;;;3.70;97.30;;;;;;4979629;28;20812;-63
2023/12/14 15:58:28;;;;;;;4.03;2.93;;;3.70;97.30;;;;;;4959807;28;20436;-64
2023/12/14 16:00:54;;;;;;;2.43;2.23;;;3.70;97.30;;;;;;4965357;28;20241;-64
2023/12/14 16:03:20;;;;;;;2.53;2.33;;;3.70;97.30;;;;;;4980040;28;20448;-63
2023/12/14 16:05:45;;;;;;;2.20;2.00;;;3.70;97.30;;;;;;4979559;28;20621;-64
2023/12/14 16:08:11;;;;;;;2.00;1.90;;;3.70;97.30;;;;;;4961239;28;20241;-63
2023/12/14 16:10:37;;;;;;;2.97;2.60;;;3.70;97.30;;;;;;4959095;28;20206;-64
2023/12/14 16:13:03;;;;;;;11.63;3.57;;;3.70;97.30;;;;;;4961133;28;20609;-64
2023/12/14 16:15:30;;;;;;;1.93;1.33;;;3.70;97.30;;;;;;4976522;28;20415;-64
2023/12/14 16:17:56;;;;;;;3.30;2.60;;;3.70;97.30;;;;;;4961056;28;20187;-63
2023/12/14 16:20:23;;;;;;;5.17;1.97;;;3.70;97.30;;;;;;4982679;28;20421;-63
2023/12/14 16:22:50;;;;;;;18.67;4.40;;;3.70;97.30;;;;;;4969927;28;20558;-64
2023/12/14 16:25:16;;;;;;;4.83;2.80;;;3.70;97.30;;;;;;4983301;28;20425;-64
2023/12/14 16:27:42;;;;;;;1.70;1.60;;;3.80;97.30;;;;;;4976228;28;20465;-63
2023/12/14 16:30:08;;;;;;;5.63;4.30;;;3.80;97.30;;;;;;4970266;28;20932;-63
2023/12/14 16:32:34;;;;;;;3.23;2.40;;;3.80;97.30;;;;;;4984609;28;20170;-64
2023/12/14 16:34:59;;;;;;;4.70;2.70;;;3.80;97.30;;;;;;4982369;28;20421;-63
2023/12/14 16:37:27;;;;;;;3.23;1.90;;;3.80;97.30;;;;;;4961081;28;20556;-64
2023/12/14 16:39:52;;;;;;;2.40;2.23;;;3.80;97.30;;;;;;4961790;28;20189;-64
2023/12/14 16:42:18;;;;;;;8.90;4.20;;;3.80;97.30;;;;;;4971067;28;20449;-63
2023/12/14 16:44:43;;;;;;;3.83;3.07;;;3.80;97.30;;;;;;4958074;28;20558;-64
2023/12/14 16:47:11;;;;;;;2.00;1.87;;;3.80;97.30;;;;;;4966244;28;20213;-64
2023/12/14 16:49:37;;;;;;;4.43;1.90;;;3.80;97.30;;;;;;4957947;28;20182;-64
2023/12/14 16:52:04;;;;;;;4.60;1.33;;;3.80;97.30;;;;;;4960101;28;20468;-64
2023/12/14 16:54:29;;;;;;;1.63;1.53;;;3.80;97.30;;;;;;4978614;28;20178;-64
2023/12/14 16:56:55;;;;;;;4.93;2.53;;;3.80;97.30;;;;;;4971905;28;20925;-64
2023/12/14 16:59:22;;;;;;;3.87;3.67;;;3.80;97.30;;;;;;4976467;28;20185;-64
2023/12/14 17:01:47;;;;;;;1.20;1.10;;;3.80;97.30;;;;;;4975309;28;20198;-63
2023/12/14 17:04:13;;;;;;;3.13;1.50;;;3.80;97.30;;;;;;4965912;28;20852;-63
2023/12/14 17:06:40;;;;;;;4.40;3.57;;;3.80;97.30;;;;;;4974491;28;20206;-63
2023/12/14 17:09:06;;;;;;;1.67;1.63;;;3.80;97.30;;;;;;4977283;28;20209;-63
2023/12/14 17:11:32;;;;;;;1.60;1.50;;;3.80;97.30;;;;;;4957222;28;20735;-64
2023/12/14 17:13:58;;;;;;;1.53;1.43;;;3.80;97.30;;;;;;4958428;28;20599;-64
2023/12/14 17:16:24;;;;;;;2.20;2.03;;;3.90;97.30;;;;;;4963474;28;20472;-63
2023/12/14 17:18:49;;;;;;;1.70;1.60;;;3.80;97.30;;;;;;4986213;28;20178;-63
2023/12/14 17:21:19;;;;;;;2.00;1.80;;;3.90;97.30;;;;;;4982138;28;20830;-64
2023/12/14 17:23:45;;;;;;;3.03;2.50;;;3.90;97.30;;;;;;4957032;28;20179;-63
2023/12/14 17:26:13;;;;;;;6.90;2.73;;;3.90;97.30;;;;;;4964946;28;20515;-63
2023/12/14 17:28:46;;;;;;;1.90;1.60;;;3.90;97.30;;;;;;4962465;28;20253;-64
2023/12/14 17:31:12;;;;;;;4.73;3.00;;;3.90;97.30;;;;;;4988701;28;20444;-63
2023/12/14 17:33:38;;;;;;;1.90;1.80;;;3.90;97.30;;;;;;4978999;28;20948;-64
2023/12/14 17:36:04;;;;;;;1.60;1.50;;;3.90;97.30;;;;;;4958486;28;20425;-63
2023/12/14 17:38:30;;;;;;;12.03;3.10;;;3.90;97.30;;;;;;4979997;28;20662;-65
2023/12/14 17:40:57;;;;;;;3.03;2.83;;;3.90;97.30;;;;;;4980077;28;20436;-63
2023/12/14 17:43:23;;;;;;;1.30;1.23;;;3.90;97.30;;;;;;4974884;28;20268;-63
2023/12/14 17:45:49;;;;;;;3.47;3.27;;;3.90;97.30;;;;;;4966215;28;20544;-64
2023/12/14 17:48:14;;;;;;;1.50;1.40;;;3.90;97.30;;;;;;4980834;28;20909;-63
2023/12/14 17:50:40;;;;;;;15.87;3.10;;;3.90;97.30;;;;;;4960268;28;20753;-64
2023/12/14 17:53:06;;;;;;;3.43;1.40;;;3.90;97.30;;;;;;4975808;28;20261;-63
2023/12/14 17:55:32;;;;;;;4.47;1.87;;;3.90;97.30;;;;;;4961916;28;20428;-65
2023/12/14 17:57:57;;;;;;;1.30;1.20;;;3.90;97.30;;;;;;4985168;28;20186;-63